Time;durP1;ratioP1;P1;durP2;ratioP2;P2;SDS_P1;SDS_P2;PMS_P1;PMS_P2;Temp;Humidity;BMP_temperature;BMP_pressure;BME280_temperature;BME280_humidity;BME280_pressure;Samples;Min_cycle;Max_cycle;Signal;HPM_P1;HPM_P2
2022/11/25 00:01:23;;;;;;;;;4.00;2.75;;;;;11.34;100.00;100739.75;4993637;28;45465;-74
2022/11/25 00:03:51;;;;;;;;;3.25;2.75;;;;;11.30;100.00;100729.31;4969814;28;45578;-75
2022/11/25 00:06:28;;;;;;;;;2.00;2.00;;;;;11.45;100.00;100750.59;4994104;28;48600;-74
2022/11/25 00:08:59;;;;;;;;;3.00;3.00;;;;;11.33;100.00;100719.31;4996418;28;45404;-76
2022/11/25 00:11:25;;;;;;;;;1.75;1.75;;;;;11.43;100.00;100720.47;4996402;28;45427;-75
2022/11/25 00:13:50;;;;;;;;;3.25;3.25;;;;;11.51;100.00;100732.47;4996928;28;45407;-75
2022/11/25 00:16:19;;;;;;;;;7.00;2.00;;;;;11.54;100.00;100737.59;4996392;28;46182;-75
2022/11/25 00:18:48;;;;;;;;;4.00;2.25;;;;;11.55;100.00;100740.22;4978844;28;45485;-75
2022/11/25 00:21:17;;;;;;;;;4.25;1.25;;;;;11.54;100.00;100729.59;4996780;28;45399;-75
2022/11/25 00:23:43;;;;;;;;;3.00;2.00;;;;;11.51;100.00;100727.13;4996447;28;45346;-75
2022/11/25 00:26:14;;;;;;;;;2.25;1.75;;;;;11.52;100.00;100736.88;4996421;28;45406;-74
2022/11/25 00:28:41;;;;;;;;;4.00;2.25;;;;;11.55;100.00;100739.34;4996384;28;45379;-75
2022/11/25 00:31:09;;;;;;;;;2.50;2.00;;;;;11.20;100.00;100686.34;4996803;28;45421;-75
2022/11/25 00:33:34;;;;;;;;;1.75;1.75;;;;;11.30;100.00;100698.16;4978876;28;45519;-75
2022/11/25 00:36:05;;;;;;;;;2.25;2.25;;;;;11.49;100.00;100732.56;4996334;28;45339;-75
2022/11/25 00:38:30;;;;;;;;;4.25;3.00;;;;;11.52;100.00;100743.06;4996341;28;45367;-73
2022/11/25 00:46:24;;;;;;;;;3.00;3.00;;;;;11.24;100.00;100690.53;4996041;28;45421;-75
2022/11/25 00:48:50;;;;;;;;;2.75;1.50;;;;;11.31;100.00;100715.91;4995778;28;45387;-75
2022/11/25 00:51:15;;;;;;;;;2.00;2.00;;;;;11.43;100.00;100747.19;4996413;28;45407;-75
2022/11/25 00:53:40;;;;;;;;;3.75;1.75;;;;;11.17;100.00;100708.75;4996114;28;45592;-75
2022/11/25 00:56:11;;;;;;;;;2.25;2.00;;;;;11.22;100.00;100713.81;4996119;28;46535;-75
2022/11/25 00:58:37;;;;;;;;;4.00;1.00;;;;;11.34;100.00;100742.41;4996460;28;45452;-75
2022/11/25 01:01:03;;;;;;;;;3.50;2.00;;;;;11.39;100.00;100760.81;4978445;28;45368;-75
2022/11/25 01:03:28;;;;;;;;;3.75;1.00;;;;;11.34;100.00;100753.09;4996469;28;45580;-75
2022/11/25 01:05:53;;;;;;;;;1.75;1.00;;;;;11.34;100.00;100754.91;4996334;28;46287;-75
2022/11/25 01:08:19;;;;;;;;;3.25;3.25;;;;;11.33;100.00;100756.72;4995772;28;45468;-74
2022/11/25 01:10:44;;;;;;;;;4.75;1.75;;;;;10.78;100.00;100680.88;4996459;28;45468;-75
2022/11/25 01:13:09;;;;;;;;;1.00;1.00;;;;;11.06;100.00;100741.44;4996654;28;45528;-75
2022/11/25 01:15:36;;;;;;;;;1.25;1.25;;;;;11.11;100.00;100752.69;4978734;28;47215;-75
2022/11/25 01:18:01;;;;;;;;;3.50;1.25;;;;;11.03;100.00;100738.97;4996505;28;45552;-75
2022/11/25 01:20:26;;;;;;;;;2.50;2.00;;;;;11.27;100.00;100783.81;4996227;28;45410;-75
2022/11/25 01:22:52;;;;;;;;;1.00;1.00;;;;;11.18;100.00;100781.72;4996573;28;45360;-73
2022/11/25 01:25:17;;;;;;;;;1.25;1.00;;;;;11.16;100.00;100780.94;4994964;28;48034;-74
2022/11/25 01:27:42;;;;;;;;;1.00;1.00;;;;;11.19;100.00;100796.75;4996271;28;45523;-74
2022/11/25 01:30:08;;;;;;;;;2.00;1.00;;;;;11.19;100.00;100797.63;4995669;28;45410;-74
2022/11/25 01:32:34;;;;;;;;;3.00;2.00;;;;;10.57;100.00;100701.75;4995531;28;45542;-74
2022/11/25 01:34:59;;;;;;;;;1.00;1.00;;;;;11.04;100.00;100796.75;4995311;28;46524;-75
2022/11/25 01:37:24;;;;;;;;;3.00;1.00;;;;;11.16;100.00;100815.63;4995673;28;45400;-75
2022/11/25 01:39:50;;;;;;;;;1.00;1.00;;;;;10.82;100.00;100773.16;4995222;28;45388;-74
2022/11/25 01:42:16;;;;;;;;;4.00;3.00;;;;;11.08;100.00;100824.09;4995530;28;45565;-74
2022/11/25 01:44:42;;;;;;;;;4.00;2.00;;;;;10.89;100.00;100790.53;4995147;28;45375;-76
2022/11/25 01:47:17;;;;;;;;;1.75;1.75;;;;;11.15;100.00;100833.47;4995171;28;45457;-74
2022/11/25 01:50:06;;;;;;;;;1.25;1.25;;;;;11.15;100.00;100832.59;4977800;28;45508;-74
2022/11/25 01:52:43;;;;;;;;;3.00;2.25;;;;;11.15;100.00;100827.25;4995158;28;45407;-73
2022/11/25 01:55:13;;;;;;;;;4.50;2.50;;;;;11.18;100.00;100832.44;4993439;28;45558;-73
2022/11/25 01:57:46;;;;;;;;;4.50;2.25;;;;;11.12;100.00;100833.66;4994952;28;45471;-75
2022/11/25 02:00:13;;;;;;;;;2.00;2.00;;;;;11.11;100.00;100843.47;4995104;28;45439;-74
2022/11/25 02:02:39;;;;;;;;;2.75;1.50;;;;;11.01;100.00;100836.97;4994712;28;45448;-74
2022/11/25 02:05:12;;;;;;;;;2.00;2.00;;;;;10.97;100.00;100829.22;4973807;28;45473;-74
2022/11/25 02:07:42;;;;;;;;;4.00;1.50;;;;;10.87;100.00;100813.75;4975223;28;45442;-75
2022/11/25 02:10:12;;;;;;;;;3.50;2.75;;;;;10.87;100.00;100820.94;4975497;28;45503;-75
2022/11/25 02:12:40;;;;;;;;;2.25;2.25;;;;;11.05;100.00;100849.19;4975785;28;45541;-73
2022/11/25 02:15:06;;;;;;;;;2.00;1.00;;;;;10.70;100.00;100801.44;4975211;28;46308;-75
2022/11/25 02:17:32;;;;;;;;;3.00;2.00;;;;;10.91;100.00;100842.00;4975044;28;45393;-74
2022/11/25 02:20:03;;;;;;;;;6.00;4.00;;;;;11.00;100.00;100861.94;4975616;28;45418;-73
2022/11/25 02:22:38;;;;;;;;;2.75;2.75;;;;;10.81;100.00;100834.63;4974742;28;45442;-74
2022/11/25 02:25:13;;;;;;;;;1.25;1.25;;;;;10.50;100.00;100783.94;4973893;28;45569;-74
2022/11/25 02:27:41;;;;;;;;;4.00;2.50;;;;;10.96;100.00;100862.22;4975064;28;45490;-73
2022/11/25 02:30:07;;;;;;;;;1.75;1.75;;;;;10.84;100.00;100845.13;4975208;28;45453;-76
2022/11/25 02:32:33;;;;;;;;;1.00;1.00;;;;;10.97;100.00;100870.13;4974853;28;46052;-73
2022/11/25 02:34:58;;;;;;;;;2.00;2.00;;;;;10.59;100.00;100814.53;4974949;28;45485;-73
2022/11/25 02:37:24;;;;;;;;;1.50;1.50;;;;;10.73;100.00;100838.59;4973608;28;45607;-75
2022/11/25 02:39:51;;;;;;;;;3.67;1.00;;;;;10.82;100.00;100863.88;4975066;28;45388;-75
2022/11/25 02:42:18;;;;;;;;;2.75;2.75;;;;;10.74;100.00;100844.78;4975260;28;45481;-75
2022/11/25 02:44:44;;;;;;;;;3.00;3.00;;;;;10.87;100.00;100874.31;4974982;28;45489;-74
2022/11/25 02:47:09;;;;;;;;;3.75;2.75;;;;;11.00;100.00;100893.97;4975088;28;45491;-74
2022/11/25 02:49:34;;;;;;;;;4.25;3.00;;;;;10.81;100.00;100858.63;4974847;28;45410;-75
2022/11/25 02:52:00;;;;;;;;;3.00;2.50;;;;;11.01;100.00;100890.34;4974935;28;45422;-75
2022/11/25 02:54:25;;;;;;;;;1.00;1.00;;;;;10.98;100.00;100889.69;4973590;28;48177;-75
2022/11/25 02:56:50;;;;;;;;;4.75;2.00;;;;;10.99;100.00;100892.25;4974945;28;45363;-75
2022/11/25 02:59:16;;;;;;;;;1.00;1.00;;;;;10.37;100.00;100799.78;4974791;28;45434;-75
2022/11/25 03:01:41;;;;;;;;;4.75;1.75;;;;;10.67;100.00;100849.63;4974852;28;45490;-75
2022/11/25 03:04:07;;;;;;;;;2.75;2.75;;;;;10.74;100.00;100860.78;4958354;28;46276;-75
2022/11/25 03:06:32;;;;;;;;;3.50;3.00;;;;;10.96;100.00;100904.91;4980134;28;45551;-75
2022/11/25 03:08:57;;;;;;;;;1.50;1.50;;;;;10.67;100.00;100865.63;4988139;28;45352;-75
2022/11/25 03:12:17;;;;;;;;;2.00;1.00;;;;;10.91;100.00;100908.72;4982598;28;45522;-72
2022/11/25 03:14:08;;;;;;;;;3.25;2.50;;;;;10.73;100.00;100873.28;4985486;28;45467;-73
2022/11/25 03:16:34;;;;;;;;;3.50;2.00;;;;;10.92;100.00;100907.78;4991683;28;45443;-74
2022/11/25 03:18:59;;;;;;;;;4.50;2.00;;;;;10.62;100.00;100865.03;4985036;28;45372;-74
2022/11/25 03:21:24;;;;;;;;;1.00;1.00;;;;;10.87;100.00;100914.34;4974340;28;45339;-73
2022/11/25 03:23:50;;;;;;;;;2.00;1.00;;;;;10.81;100.00;100915.56;4974117;28;45381;-73
2022/11/25 03:26:15;;;;;;;;;1.00;1.00;;;;;10.53;100.00;100889.59;4972484;28;45401;-73
2022/11/25 03:28:41;;;;;;;;;1.00;1.00;;;;;10.64;100.00;100896.97;4980606;28;45376;-73
2022/11/25 03:31:09;;;;;;;;;5.75;2.00;;;;;10.76;100.00;100934.47;4981528;28;45418;-73
2022/11/25 03:33:35;;;;;;;;;1.00;1.00;;;;;10.62;100.00;100913.03;4972742;28;47956;-73
2022/11/25 03:36:00;;;;;;;;;4.25;3.00;;;;;10.84;100.00;100951.88;4973559;28;45471;-72
2022/11/25 03:38:25;;;;;;;;;3.75;1.25;;;;;10.48;100.00;100900.50;4974137;28;45369;-73
2022/11/25 03:40:51;;;;;;;;;1.25;1.25;;;;;10.80;100.00;100966.31;4985177;28;45445;-73
2022/11/25 03:43:16;;;;;;;;;2.00;1.50;;;;;10.53;100.00;100932.28;4956302;28;47643;-73
2022/11/25 03:45:42;;;;;;;;;2.75;2.00;;;;;10.61;100.00;100951.38;4974073;28;45582;-73
2022/11/25 03:48:07;;;;;;;;;1.75;1.00;;;;;10.77;100.00;100973.56;4972861;28;45349;-73
2022/11/25 03:50:32;;;;;;;;;4.00;2.00;;;;;10.65;100.00;100944.91;4956425;28;45428;-73
2022/11/25 03:52:58;;;;;;;;;4.00;2.75;;;;;10.58;100.00;100924.84;4973776;28;46468;-73
2022/11/25 03:55:23;;;;;;;;;3.75;2.00;;;;;10.73;100.00;100966.69;4973195;28;45586;-73
2022/11/25 03:57:48;;;;;;;;;7.00;3.00;;;;;10.60;100.00;100947.81;4972592;28;45391;-72
2022/11/25 04:00:14;;;;;;;;;5.50;2.00;;;;;10.73;100.00;100969.34;4956310;28;45909;-73
2022/11/25 04:02:39;;;;;;;;;2.00;2.00;;;;;10.68;100.00;100960.72;4983424;28;45426;-73
2022/11/25 04:05:05;;;;;;;;;1.75;1.00;;;;;10.75;100.00;100980.78;4972142;28;45515;-73
2022/11/25 04:07:31;;;;;;;;;2.00;2.00;;;;;10.77;100.00;100984.25;4973852;28;45437;-73
2022/11/25 04:09:56;;;;;;;;;3.00;1.50;;;;;10.78;100.00;100998.44;4973759;28;45438;-73
2022/11/25 04:15:06;;;;;;;;;2.00;2.00;;;;;10.72;100.00;100994.31;4973598;28;45442;-73
2022/11/25 04:17:32;;;;;;;;;3.00;2.50;;;;;10.77;100.00;100994.91;4974383;28;45400;-73
2022/11/25 04:19:57;;;;;;;;;2.25;2.25;;;;;10.77;100.00;101005.59;4976799;28;45831;-73
2022/11/25 04:22:22;;;;;;;;;2.25;2.25;;;;;10.71;100.00;100994.41;4976869;28;45487;-73
2022/11/25 04:24:48;;;;;;;;;2.75;1.00;;;;;10.53;100.00;100970.47;4976917;28;45486;-73
2022/11/25 04:27:13;;;;;;;;;2.25;2.25;;;;;10.77;100.00;101005.59;4976994;28;45518;-71
2022/11/25 04:29:38;;;;;;;;;2.25;1.50;;;;;10.76;100.00;101014.53;4995228;28;45390;-73
2022/11/25 04:32:04;;;;;;;;;0.00;0.00;;;;;10.51;100.00;100971.50;4989843;28;46640;-73
2022/11/25 04:34:29;;;;;;;;;4.00;2.00;;;;;10.75;100.00;101020.81;4980979;28;45701;-73
2022/11/25 04:36:54;;;;;;;;;4.50;2.00;;;;;10.76;100.00;101017.19;4980270;28;45336;-72
2022/11/25 04:39:20;;;;;;;;;3.00;2.00;;;;;10.63;100.00;100996.63;4996634;28;45437;-73
2022/11/25 04:41:45;;;;;;;;;3.00;2.00;;;;;10.54;100.00;100988.19;4996349;28;45510;-73
2022/11/25 04:44:10;;;;;;;;;5.00;2.75;;;;;10.53;100.00;100996.28;4996404;28;45510;-74
2022/11/25 04:46:39;;;;;;;;;3.00;3.00;;;;;10.47;100.00;100988.59;4996492;28;45667;-73
2022/11/25 04:49:05;;;;;;;;;2.00;1.00;;;;;10.79;100.00;101042.00;4978500;28;45524;-73
2022/11/25 04:51:30;;;;;;;;;4.25;3.00;;;;;10.80;100.00;101051.72;4995827;28;45427;-73
2022/11/25 04:53:56;;;;;;;;;5.00;2.00;;;;;10.77;100.00;101050.94;4996263;28;45447;-73
2022/11/25 04:56:21;;;;;;;;;3.00;3.00;;;;;10.63;100.00;101034.84;4996424;28;45508;-73
2022/11/25 05:01:31;;;;;;;;;2.75;2.50;;;;;10.74;100.00;101058.25;4995841;28;45794;-73
2022/11/25 05:03:56;;;;;;;;;2.50;2.50;;;;;10.72;100.00;101065.50;4996063;28;45421;-74
2022/11/25 05:06:22;;;;;;;;;3.00;3.00;;;;;10.68;100.00;101059.44;4996102;28;45766;-73
2022/11/25 05:08:48;;;;;;;;;1.25;1.00;;;;;10.69;100.00;101060.31;4996479;28;45691;-73
2022/11/25 05:11:14;;;;;;;;;3.25;2.00;;;;;10.34;100.00;101004.38;4994244;28;48878;-73
2022/11/25 05:13:39;;;;;;;;;3.25;2.00;;;;;10.44;100.00;101029.63;4996067;28;45492;-72
2022/11/25 05:16:05;;;;;;;;;1.25;1.25;;;;;10.53;100.00;101050.47;4978099;28;45731;-73
2022/11/25 05:18:31;;;;;;;;;4.75;2.00;;;;;10.54;100.00;101059.34;4996105;28;45417;-73
2022/11/25 05:21:01;;;;;;;;;4.25;3.25;;;;;10.69;100.00;101087.88;4994522;28;48318;-72
2022/11/25 05:23:26;;;;;;;;;3.00;2.00;;;;;10.48;100.00;101057.03;4995907;28;45360;-73
2022/11/25 05:25:52;;;;;;;;;4.00;3.00;;;;;10.50;100.00;101077.34;4995801;28;45446;-73
2022/11/25 05:28:17;;;;;;;;;6.50;1.50;;;;;10.44;100.00;101074.97;4978015;28;45354;-73
2022/11/25 05:30:44;;;;;;;;;2.50;2.00;;;;;10.48;100.00;101078.34;4995330;28;45505;-73
2022/11/25 05:33:09;;;;;;;;;2.00;2.00;;;;;10.42;100.00;101077.72;4995728;28;45566;-73
2022/11/25 05:35:34;;;;;;;;;2.75;2.00;;;;;10.58;100.00;101111.56;4995759;28;45557;-73
2022/11/25 05:38:02;;;;;;;;;3.00;3.00;;;;;10.43;100.00;101086.59;4995449;28;45458;-73
2022/11/25 05:40:28;;;;;;;;;4.00;2.50;;;;;10.41;100.00;101099.16;4995256;28;45425;-73
2022/11/25 05:42:53;;;;;;;;;2.50;2.25;;;;;10.15;100.00;101057.81;4995128;28;45415;-73
2022/11/25 05:45:18;;;;;;;;;4.50;2.25;;;;;10.53;100.00;101125.16;4995260;28;45660;-73
2022/11/25 05:47:44;;;;;;;;;3.25;3.25;;;;;10.36;100.00;101104.72;4995625;28;45333;-73
2022/11/25 05:50:09;;;;;;;;;3.00;2.00;;;;;10.06;100.00;101062.69;4995251;28;45471;-73
2022/11/25 05:52:35;;;;;;;;;2.75;2.75;;;;;10.09;100.00;101072.34;4977823;28;45605;-73
2022/11/25 05:55:00;;;;;;;;;2.25;2.25;;;;;10.44;100.00;101137.19;4977579;28;45429;-73
2022/11/25 05:57:27;;;;;;;;;2.25;2.25;;;;;10.48;100.00;101137.03;4995488;28;45319;-73
2022/11/25 05:59:52;;;;;;;;;5.00;2.00;;;;;10.34;100.00;101119.03;4994950;28;45533;-73
2022/11/25 06:02:18;;;;;;;;;2.75;2.75;;;;;10.27;100.00;101113.16;4995015;28;45358;-73
2022/11/25 06:04:43;;;;;;;;;2.00;2.00;;;;;10.09;100.00;101083.88;4995280;28;45397;-73
2022/11/25 06:07:08;;;;;;;;;3.75;2.75;;;;;10.49;100.00;101146.78;4995303;28;45394;-73
2022/11/25 06:09:34;;;;;;;;;7.75;3.75;;;;;10.42;100.00;101144.41;4995020;28;45572;-73
2022/11/25 06:11:59;;;;;;;;;3.25;2.25;;;;;10.35;100.00;101137.69;4977265;28;45687;-73
2022/11/25 06:14:25;;;;;;;;;5.00;4.00;;;;;10.13;100.00;101105.88;4995020;28;45439;-73
2022/11/25 06:16:50;;;;;;;;;4.00;3.75;;;;;10.19;100.00;101121.59;4977328;28;45521;-73
2022/11/25 06:19:16;;;;;;;;;3.00;3.00;;;;;10.13;100.00;101121.03;4994764;28;46083;-73
2022/11/25 06:21:41;;;;;;;;;4.00;4.00;;;;;9.99;100.00;101098.63;4994756;28;45442;-73
2022/11/25 06:24:06;;;;;;;;;6.75;4.00;;;;;10.37;100.00;101167.78;4994988;28;45391;-73
2022/11/25 06:26:32;;;;;;;;;4.25;4.00;;;;;10.38;100.00;101177.53;4994749;28;45578;-73
2022/11/25 06:28:57;;;;;;;;;5.00;3.50;;;;;10.08;100.00;101119.47;4994291;28;46548;-73
2022/11/25 06:31:24;;;;;;;;;3.00;3.00;;;;;10.24;100.00;101162.22;4976786;28;45499;-73
2022/11/25 06:33:51;;;;;;;;;5.00;1.75;;;;;10.26;99.85;101175.44;4977010;28;45375;-73
2022/11/25 06:36:18;;;;;;;;;1.50;1.25;;;;;10.30;100.00;101195.69;4994176;28;45362;-73
2022/11/25 06:38:53;;;;;;;;;3.00;2.25;;;;;10.23;99.83;101183.59;4994505;28;45439;-73
2022/11/25 06:41:22;;;;;;;;;6.25;5.00;;;;;10.12;100.00;101178.81;4975891;28;45598;-73
2022/11/25 06:43:47;;;;;;;;;6.50;4.00;;;;;9.64;100.00;101100.41;4994292;28;45399;-73
2022/11/25 06:46:14;;;;;;;;;4.25;4.00;;;;;10.18;99.21;101193.66;4974800;28;45567;-73
2022/11/25 06:48:40;;;;;;;;;9.00;4.50;;;;;9.96;100.00;101170.75;4994333;28;45805;-75
2022/11/25 06:51:09;;;;;;;;;5.25;3.75;;;;;10.03;100.00;101168.63;4994571;28;45389;-75
2022/11/25 06:53:35;;;;;;;;;10.25;5.00;;;;;10.03;100.00;101190.81;4994379;28;45383;-75
2022/11/25 06:56:07;;;;;;;;;6.00;5.50;;;;;9.94;100.00;101176.13;4994222;28;45505;-72
2022/11/25 06:58:34;;;;;;;;;5.00;2.75;;;;;10.15;100.00;101207.09;4976287;28;46203;-73
2022/11/25 07:01:02;;;;;;;;;6.50;4.50;;;;;10.14;100.00;101203.59;4993850;28;45477;-73
2022/11/25 07:03:28;;;;;;;;;5.50;2.50;;;;;10.07;100.00;101187.03;4994061;28;45441;-73
2022/11/25 07:05:58;;;;;;;;;8.50;5.00;;;;;10.08;100.00;101190.56;4993914;28;45569;-73
2022/11/25 07:08:24;;;;;;;;;4.75;3.25;;;;;10.01;100.00;101175.81;4993843;28;46174;-73
2022/11/25 07:10:50;;;;;;;;;2.00;2.00;;;;;9.99;100.00;101177.69;4994022;28;45469;-73
2022/11/25 07:13:15;;;;;;;;;8.25;7.75;;;;;9.84;100.00;101166.00;4975797;28;45494;-73
2022/11/25 07:15:40;;;;;;;;;3.25;3.00;;;;;10.02;100.00;101202.41;4976702;28;45464;-73
2022/11/25 07:18:06;;;;;;;;;2.00;2.00;;;;;9.74;100.00;101161.13;4994182;28;46099;-73
2022/11/25 07:20:31;;;;;;;;;3.25;1.75;;;;;10.09;100.00;101227.81;4990257;28;45458;-72
2022/11/25 07:22:57;;;;;;;;;5.75;2.75;;;;;9.53;100.00;101131.09;4967466;28;45484;-73
2022/11/25 07:25:22;;;;;;;;;4.25;3.75;;;;;10.12;100.00;101240.13;4993728;28;45422;-73
2022/11/25 07:27:47;;;;;;;;;4.00;3.00;;;;;10.06;100.00;101227.09;4993598;28;45518;-73
2022/11/25 07:30:13;;;;;;;;;2.50;2.00;;;;;10.00;100.00;101222.94;4993692;28;45352;-73
2022/11/25 07:32:38;;;;;;;;;4.00;3.50;;;;;9.88;100.00;101194.22;4976326;28;45383;-73
2022/11/25 07:35:04;;;;;;;;;4.25;4.00;;;;;9.63;100.00;101152.78;4976242;28;45491;-73
2022/11/25 07:37:29;;;;;;;;;7.00;4.00;;;;;10.28;99.84;101258.88;4993738;28;45406;-73
2022/11/25 07:39:55;;;;;;;;;4.00;4.00;;;;;9.74;99.29;101173.56;4994027;28;45413;-71
2022/11/25 07:42:20;;;;;;;;;5.75;3.50;;;;;9.96;100.00;101224.03;4959479;28;45369;-72
2022/11/25 07:44:45;;;;;;;;;6.25;5.00;;;;;10.29;100.00;101273.94;4976398;28;45543;-72
2022/11/25 07:47:11;;;;;;;;;5.00;2.75;;;;;10.08;100.00;101241.19;4993818;28;46426;-72
2022/11/25 07:49:36;;;;;;;;;6.75;4.50;;;;;10.24;99.71;101254.66;4993829;28;45357;-71
2022/11/25 07:52:03;;;;;;;;;2.50;2.50;;;;;10.30;99.25;101267.69;4975827;28;45436;-72
2022/11/25 07:54:30;;;;;;;;;4.50;3.25;;;;;10.22;99.45;101277.88;4997137;28;45541;-72
2022/11/25 07:56:55;;;;;;;;;7.00;3.50;;;;;10.21;99.74;101276.13;4996933;28;46092;-73
2022/11/25 07:59:22;;;;;;;;;7.75;4.00;;;;;10.15;98.87;101284.41;4997413;28;45596;-73
2022/11/25 08:01:48;;;;;;;;;4.75;4.75;;;;;10.26;99.74;101317.63;4997558;28;45545;-73
2022/11/25 08:04:14;;;;;;;;;6.75;4.75;;;;;10.18;100.00;101301.16;4997424;28;45457;-73
2022/11/25 08:06:44;;;;;;;;;6.00;4.25;;;;;10.34;100.00;101324.38;4997260;28;46100;-73
2022/11/25 08:09:14;;;;;;;;;5.25;5.25;;;;;10.20;99.05;101317.06;4998037;28;45413;-73
2022/11/25 08:11:40;;;;;;;;;8.75;7.50;;;;;10.40;99.14;101329.47;4997744;28;45427;-73
2022/11/25 08:14:05;;;;;;;;;11.25;6.00;;;;;10.25;98.65;101313.22;4997895;28;45356;-73
2022/11/25 08:16:31;;;;;;;;;6.00;6.00;;;;;10.19;98.11;101323.31;4997806;28;45396;-73
2022/11/25 08:19:02;;;;;;;;;9.00;9.00;;;;;10.39;99.15;101341.94;4980039;28;45424;-73
2022/11/25 08:21:27;;;;;;;;;9.25;9.00;;;;;10.31;98.98;101338.75;4997885;28;45312;-73
2022/11/25 08:23:53;;;;;;;;;9.50;8.00;;;;;10.42;98.93;101354.25;4997206;28;45521;-73
2022/11/25 08:26:20;;;;;;;;;16.25;11.75;;;;;10.43;98.54;101359.53;4996375;28;46254;-73
2022/11/25 08:28:46;;;;;;;;;9.50;8.00;;;;;10.40;98.98;101354.31;4996505;28;45450;-73
2022/11/25 08:31:15;;;;;;;;;9.50;5.50;;;;;10.52;98.95;101363.53;4996556;28;45430;-72
2022/11/25 08:33:41;;;;;;;;;4.50;4.50;;;;;10.49;98.47;101355.69;4996656;28;45477;-73
2022/11/25 08:36:08;;;;;;;;;10.25;6.50;;;;;10.58;97.81;101376.56;4996560;28;45422;-73
2022/11/25 08:38:33;;;;;;;;;10.00;7.50;;;;;10.50;97.81;101361.88;4996153;28;45277;-73
2022/11/25 08:40:59;;;;;;;;;7.00;6.75;;;;;10.51;98.20;101371.59;4996392;28;45666;-73
2022/11/25 08:43:25;;;;;;;;;11.75;9.75;;;;;10.61;97.02;101388.91;4996330;28;45635;-72
2022/11/25 08:45:50;;;;;;;;;10.00;8.75;;;;;10.65;97.80;101385.13;4996226;28;45517;-72
2022/11/25 08:48:18;;;;;;;;;9.25;9.25;;;;;10.69;96.83;101401.84;4978430;28;45356;-73
2022/11/25 08:50:50;;;;;;;;;11.75;9.25;;;;;10.42;97.37;101351.59;4996492;28;45351;-73
2022/11/25 08:53:16;;;;;;;;;9.75;8.50;;;;;10.53;97.73;101348.41;4996398;28;45399;-73
2022/11/25 08:55:42;;;;;;;;;8.75;8.00;;;;;10.88;97.31;101404.50;4995991;28;45413;-73
2022/11/25 08:58:10;;;;;;;;;9.75;6.75;;;;;10.71;96.18;101368.81;4996223;28;45402;-73
2022/11/25 09:00:40;;;;;;;;;11.50;10.50;;;;;10.89;97.56;101395.50;4996221;28;45376;-73
2022/11/25 09:03:05;;;;;;;;;10.50;10.00;;;;;11.03;96.43;101411.72;4995530;28;45362;-73
2022/11/25 09:05:34;;;;;;;;;12.00;9.50;;;;;11.28;96.27;101415.78;4995716;28;46185;-73
2022/11/25 09:08:04;;;;;;;;;13.75;11.00;;;;;11.44;95.89;101387.34;4995914;28;45581;-73
2022/11/25 09:10:30;;;;;;;;;9.75;9.25;;;;;11.78;93.09;101417.63;4995448;28;45437;-73
2022/11/25 09:12:56;;;;;;;;;8.00;7.00;;;;;11.73;93.03;101422.34;4996148;28;45442;-73
2022/11/25 09:15:21;;;;;;;;;10.25;4.50;;;;;11.74;93.64;101437.44;4995833;28;45426;-72
2022/11/25 09:17:47;;;;;;;;;5.50;5.50;;;;;11.72;92.48;101431.28;4995713;28;45372;-73
2022/11/25 09:20:12;;;;;;;;;7.50;5.25;;;;;11.82;91.24;101445.03;4996029;28;45443;-73
2022/11/25 09:22:38;;;;;;;;;4.00;4.00;;;;;11.78;89.76;101452.38;4977807;28;45687;-73
2022/11/25 09:25:03;;;;;;;;;5.25;3.00;;;;;11.68;90.99;101439.56;4995526;28;45650;-73
2022/11/25 09:27:30;;;;;;;;;7.25;5.25;;;;;11.69;90.92;101447.50;4995633;28;45441;-72
2022/11/25 09:29:55;;;;;;;;;5.00;4.00;;;;;11.50;91.26;101436.03;4995392;28;45399;-73
2022/11/25 09:32:21;;;;;;;;;3.75;3.75;;;;;11.53;90.35;101441.25;4995476;28;45455;-72
2022/11/25 09:34:46;;;;;;;;;7.25;3.50;;;;;11.35;92.00;101421.69;4995508;28;46558;-73
2022/11/25 09:37:11;;;;;;;;;4.00;4.00;;;;;11.18;89.73;101415.41;4995091;28;45324;-73
2022/11/25 09:39:37;;;;;;;;;6.50;4.75;;;;;11.30;91.59;101437.94;4995257;28;45502;-73
2022/11/25 09:48:22;;;;;;;;;4.25;2.00;;;;;11.37;90.95;101495.44;4995572;28;45594;-73
2022/11/25 09:51:10;;;;;;;;;2.50;2.50;;;;;11.36;91.49;101501.72;4995227;28;45563;-73
2022/11/25 09:53:46;;;;;;;;;3.50;2.75;;;;;11.39;91.51;101492.69;4994279;28;45355;-72
2022/11/25 09:56:27;;;;;;;;;5.25;3.00;;;;;11.45;92.51;101495.91;4994983;28;46551;-73
2022/11/25 09:59:17;;;;;;;;;0.00;0.00;;;;;11.35;91.44;101485.78;4995177;28;45449;-73
2022/11/25 10:01:54;;;;;;;;;3.75;3.75;;;;;11.63;91.14;101517.28;4994616;28;45409;-73
2022/11/25 10:04:31;;;;;;;;;3.75;3.75;;;;;11.73;90.03;101523.06;4994899;28;45357;-73
2022/11/25 10:07:00;;;;;;;;;2.75;2.75;;;;;11.70;89.18;101512.50;4994889;28;45902;-72
2022/11/25 10:09:33;;;;;;;;;4.50;4.25;;;;;11.81;90.92;101527.97;4994933;28;45468;-72
2022/11/25 10:12:05;;;;;;;;;4.00;2.25;;;;;11.73;87.52;101513.22;4995165;28;45445;-72
2022/11/25 10:14:40;;;;;;;;;5.00;4.00;;;;;11.78;90.05;101515.63;4994643;28;45490;-73
2022/11/25 10:17:08;;;;;;;;;4.25;4.25;;;;;12.05;90.29;101529.41;4994110;28;45741;-73
2022/11/25 10:19:39;;;;;;;;;5.00;3.75;;;;;12.22;87.68;101533.84;4994815;28;45348;-73
2022/11/25 10:22:20;;;;;;;;;7.50;4.50;;;;;12.30;86.31;101532.59;4993303;28;45886;-73
2022/11/25 10:24:46;;;;;;;;;3.00;3.00;;;;;12.53;88.18;101540.22;4995082;28;45479;-72
2022/11/25 10:27:23;;;;;;;;;6.25;4.75;;;;;12.66;88.10;101544.88;4994347;28;45463;-72
2022/11/25 10:29:58;;;;;;;;;8.25;6.00;;;;;12.86;87.19;101536.63;4994643;28;45443;-73
2022/11/25 10:32:32;;;;;;;;;3.00;3.00;;;;;12.48;85.43;101478.06;4994732;28;45528;-73
2022/11/25 10:35:03;;;;;;;;;3.00;1.67;;;;;12.64;86.38;101498.63;4994454;28;45462;-71
2022/11/25 10:37:34;;;;;;;;;4.00;4.00;;;;;12.94;83.97;101539.72;4994292;28;45821;-74
2022/11/25 10:39:59;;;;;;;;;3.75;3.75;;;;;12.57;83.84;101472.19;4994391;28;45460;-73
2022/11/25 10:42:26;;;;;;;;;9.50;5.00;;;;;13.13;83.79;101522.59;4994219;28;45605;-72
2022/11/25 10:44:53;;;;;;;;;6.50;4.50;;;;;13.05;83.03;101482.88;4994650;28;45461;-72
2022/11/25 10:47:50;;;;;;;;;4.50;4.50;;;;;13.72;82.06;101556.72;4994407;28;45454;-72
2022/11/25 10:50:36;;;;;;;;;2.25;2.25;;;;;13.87;80.86;101563.84;4993993;28;45430;-73
2022/11/25 10:53:14;;;;;;;;;3.50;2.75;;;;;13.98;80.31;101563.19;4976581;28;45508;-72
2022/11/25 10:56:08;;;;;;;;;4.00;3.00;;;;;14.11;80.27;101564.19;4994402;28;45672;-72
2022/11/25 10:58:36;;;;;;;;;5.00;3.00;;;;;14.09;79.20;101523.19;4994275;28;45519;-71
2022/11/25 11:01:05;;;;;;;;;2.00;2.00;;;;;14.27;78.28;101529.22;4994317;28;45692;-72
2022/11/25 11:03:31;;;;;;;;;3.25;2.75;;;;;14.43;77.04;101550.59;4994249;28;45363;-72
2022/11/25 11:05:57;;;;;;;;;4.75;3.75;;;;;14.71;77.64;101578.41;4993994;28;45462;-72
2022/11/25 11:08:28;;;;;;;;;6.25;5.00;;;;;14.74;76.20;101561.25;4994061;28;45478;-72
2022/11/25 11:11:11;;;;;;;;;4.67;3.67;;;;;14.92;73.61;101570.78;4994315;28;45447;-72
2022/11/25 11:13:37;;;;;;;;;3.67;2.33;;;;;14.63;72.51;101543.16;4994320;28;45476;-72
2022/11/25 11:16:03;;;;;;;;;4.00;2.67;;;;;14.93;72.83;101582.41;4994029;28;45428;-72
2022/11/25 11:18:37;;;;;;;;;4.33;3.00;;;;;15.19;73.40;101583.41;4993806;28;45421;-71
2022/11/25 11:21:06;;;;;;;;;4.00;3.00;;;;;15.37;72.37;101594.78;4994059;28;45450;-71
2022/11/25 11:23:50;;;;;;;;;1.67;1.67;;;;;15.37;70.21;101592.09;4994167;28;45653;-71
2022/11/25 11:26:28;;;;;;;;;3.67;2.33;;;;;15.55;71.86;101603.44;4994119;28;45411;-72
2022/11/25 11:29:26;;;;;;;;;3.33;3.33;;;;;15.52;69.92;101602.78;4997062;28;45427;-72
2022/11/25 11:31:58;;;;;;;;;3.50;1.75;;;;;15.59;69.12;101574.53;4898222;29;45478;-71
2022/11/25 11:34:49;;;;;;;;;2.00;2.00;;;;;15.92;73.15;101600.13;4898079;29;45443;-73
2022/11/25 11:37:32;;;;;;;;;2.33;2.33;;;;;16.04;68.82;101604.66;4891745;29;45582;-70
2022/11/25 11:40:24;;;;;;;;;2.75;2.75;;;;;16.10;68.34;101612.31;4898157;29;46262;-70